createdAt,value
2019-04-29T00:00:02.331Z,40.1
2019-04-29T00:05:01.280Z,40.1
2019-04-29T00:10:02.505Z,40.1
2019-04-29T00:15:01.197Z,42.2
2019-04-29T00:20:00.602Z,41.2
2019-04-29T00:25:01.647Z,41.2
2019-04-29T00:30:00.799Z,40.6
2019-04-29T00:35:01.941Z,41.2
2019-04-29T00:40:01.195Z,41.2
2019-04-29T00:45:02.514Z,39.5
2019-04-29T00:50:01.281Z,41.2
2019-04-29T00:55:00.568Z,40.1
2019-04-29T01:00:01.578Z,40.1
2019-04-29T01:05:00.597Z,40.1
2019-04-29T01:10:01.865Z,40.6
2019-04-29T01:15:00.761Z,40.1
2019-04-29T01:20:01.118Z,40.6
2019-04-29T01:25:02.411Z,39
2019-04-29T01:30:01.135Z,40.6
2019-04-29T01:35:02.497Z,38.5
2019-04-29T01:40:01.232Z,40.1
2019-04-29T01:45:00.528Z,40.1
2019-04-29T01:50:01.340Z,40.1
2019-04-29T01:55:00.558Z,40.1
2019-04-29T02:00:01.360Z,40.1
2019-04-29T02:05:00.552Z,40.1
2019-04-29T02:10:01.537Z,39.5
2019-04-29T02:15:00.818Z,40.1
2019-04-29T02:20:01.905Z,40.1
2019-04-29T02:25:00.801Z,40.1
2019-04-29T02:30:02.005Z,40.1
2019-04-29T02:35:01.035Z,40.1
2019-04-29T02:40:02.210Z,40.1
2019-04-29T02:45:01.026Z,40.1
2019-04-29T02:50:02.552Z,39
2019-04-29T02:55:01.048Z,40.1
2019-04-29T03:00:02.356Z,40.1
2019-04-29T03:05:01.400Z,40.1
2019-04-29T03:10:00.622Z,40.1
2019-04-29T03:15:01.546Z,39
2019-04-29T03:20:00.625Z,39
2019-04-29T03:25:01.863Z,40.1
2019-04-29T03:30:01.118Z,40.1
2019-04-29T03:35:02.498Z,38.5
2019-04-29T03:40:01.568Z,40.6
2019-04-29T03:45:00.733Z,40.1
2019-04-29T03:50:02.025Z,40.6
2019-04-29T03:55:00.719Z,40.1
2019-04-29T04:00:01.740Z,39
2019-04-29T04:05:00.912Z,40.1
2019-04-29T04:10:01.851Z,40.6
2019-04-29T04:15:00.848Z,39
2019-04-29T04:20:01.972Z,39.5
2019-04-29T04:25:00.984Z,40.6
2019-04-29T04:30:02.324Z,40.1
2019-04-29T04:35:01.328Z,40.1
2019-04-29T04:40:00.687Z,40.1
2019-04-29T04:45:01.613Z,40.1
2019-04-29T04:50:00.681Z,40.1
2019-04-29T04:55:01.838Z,40.1
2019-04-29T05:00:00.941Z,39
2019-04-29T05:05:02.056Z,40.1
2019-04-29T05:10:00.992Z,40.1
2019-04-29T05:15:02.031Z,40.1
2019-04-29T05:20:00.936Z,39
2019-04-29T05:25:02.154Z,40.1
2019-04-29T05:30:01.119Z,40.1
2019-04-29T05:35:02.499Z,38.5
2019-04-29T05:40:01.331Z,40.6
2019-04-29T05:45:02.568Z,37.9
2019-04-29T05:50:01.454Z,40.1
2019-04-29T05:55:01.491Z,40.1
2019-04-29T06:00:01.337Z,40.1
2019-04-29T06:05:00.712Z,40.1
2019-04-29T06:10:01.915Z,40.1
2019-04-29T06:15:01.006Z,39.5
2019-04-29T06:20:02.214Z,40.1
2019-04-29T06:25:01.120Z,40.1
2019-04-29T06:30:03.058Z,37.9
2019-04-29T06:35:01.014Z,40.6
2019-04-29T06:40:01.942Z,40.6
2019-04-29T06:45:01.137Z,40.1
2019-04-29T06:50:02.499Z,37.9
2019-04-29T06:55:01.135Z,40.1
2019-04-29T07:00:02.521Z,39
2019-04-29T07:05:00.907Z,38.5
2019-04-29T07:10:01.706Z,40.1
2019-04-29T07:15:00.851Z,39.5
2019-04-29T07:20:03.227Z,40.1
2019-04-29T07:25:00.989Z,39.5
2019-04-29T07:30:06.417Z,40.1
2019-04-29T07:35:01.100Z,40.1
2019-04-29T07:40:03.592Z,38.5
2019-04-29T07:45:01.156Z,40.1
2019-04-29T07:50:02.482Z,38.5
2019-04-29T07:55:01.214Z,40.1
2019-04-29T08:00:02.641Z,39
2019-04-29T08:05:01.094Z,40.1
2019-04-29T08:10:02.055Z,40.1
2019-04-29T08:15:07.471Z,40.1
2019-04-29T08:20:05.115Z,40.1
2019-04-29T08:25:01.264Z,40.1
2019-04-29T08:30:06.611Z,39
2019-04-29T08:35:03.295Z,40.1
2019-04-29T08:40:15.346Z,39
2019-04-29T08:45:01.636Z,40.6
2019-04-29T08:50:02.480Z,39
2019-04-29T08:55:01.221Z,40.1
2019-04-29T09:00:00.489Z,40.6
2019-04-29T09:05:01.579Z,40.1
2019-04-29T09:10:03.190Z,40.1
2019-04-29T09:15:01.824Z,41.2
2019-04-29T09:20:01.123Z,40.1
2019-04-29T09:25:02.408Z,39
2019-04-29T09:30:00.904Z,40.6
2019-04-29T09:35:02.162Z,40.1
2019-04-29T09:40:01.154Z,41.2
2019-04-29T09:45:02.090Z,41.2
2019-04-29T09:50:01.100Z,41.7
2019-04-29T09:55:03.883Z,40.1
2019-04-29T10:00:05.084Z,41.2
2019-04-29T10:05:01.973Z,41.7
2019-04-29T10:10:06.053Z,41.2
2019-04-29T10:15:02.126Z,41.2
2019-04-29T10:20:01.148Z,41.2
2019-04-29T10:25:02.183Z,41.2
2019-04-29T10:30:01.103Z,41.2
2019-04-29T10:35:03.495Z,39.5
2019-04-29T10:40:10.800Z,41.2
2019-04-29T10:45:02.166Z,41.2
2019-04-29T10:50:01.086Z,41.2
2019-04-29T10:55:01.993Z,41.2
2019-04-29T11:00:01.198Z,41.2
2019-04-29T11:05:02.654Z,40.6
2019-04-29T11:10:01.123Z,42.2
2019-04-29T11:15:02.172Z,41.2
2019-04-29T11:20:01.199Z,41.2
2019-04-29T11:25:00.507Z,41.2
2019-04-29T11:30:02.819Z,42.2
2019-04-29T11:35:00.820Z,41.2
2019-04-29T11:40:01.936Z,42.2
2019-04-29T11:45:01.788Z,41.2
2019-04-29T11:50:01.906Z,41.2
2019-04-29T11:55:00.912Z,40.6
2019-04-29T12:00:01.972Z,41.2
2019-04-29T12:05:04.024Z,42.2
2019-04-29T12:10:02.190Z,42.8
2019-04-29T12:15:00.945Z,42.2
2019-04-29T12:20:02.015Z,42.8
2019-04-29T12:25:00.985Z,42.2
2019-04-29T12:30:01.348Z,42.2
2019-04-29T12:35:00.661Z,42.8
2019-04-29T12:40:01.924Z,42.8
2019-04-29T12:45:00.756Z,42.8
2019-04-29T12:50:01.728Z,41.7
2019-04-29T12:55:18.707Z,42.2
2019-04-29T13:00:01.414Z,43.3
2019-04-29T13:05:00.610Z,43.3
2019-04-29T13:10:06.281Z,43.3
2019-04-29T13:15:02.789Z,44.4
2019-04-29T13:20:02.574Z,42.8
2019-04-29T13:25:00.988Z,44.4
2019-04-29T13:30:02.297Z,44.4
2019-04-29T13:35:05.154Z,43.9
2019-04-29T13:40:02.528Z,42.8
2019-04-29T13:45:07.680Z,43.3
2019-04-29T13:50:16.868Z,42.2
2019-04-29T13:55:16.501Z,43.9
2019-04-29T14:00:02.378Z,44.4
2019-04-29T14:05:02.125Z,44.4
2019-04-29T14:10:00.809Z,44.9
2019-04-29T14:15:02.105Z,46.5
2019-04-29T14:20:01.089Z,46.5
2019-04-29T14:25:02.191Z,47.6
2019-04-29T14:30:02.857Z,46.5
2019-04-29T14:35:02.427Z,47.1
2019-04-29T14:40:02.697Z,50.8
2019-04-29T14:45:02.195Z,50.3
2019-04-29T14:50:01.181Z,49.8
2019-04-29T14:55:00.529Z,50.3
2019-04-29T15:00:01.692Z,49.8
2019-04-29T15:05:00.787Z,49.8
2019-04-29T15:10:01.845Z,49.8
2019-04-29T15:15:00.941Z,51.4
2019-04-29T15:20:01.517Z,51.9
2019-04-29T15:25:00.606Z,53
2019-04-29T15:30:01.665Z,54.1
2019-04-29T15:35:00.689Z,54.6
2019-04-29T15:40:01.833Z,55.1
2019-04-29T15:45:00.804Z,55.7
2019-04-29T15:50:11.270Z,53.5
2019-04-29T15:55:01.377Z,54.6
2019-04-29T16:00:01.883Z,54.1
2019-04-29T16:05:04.541Z,54.1
2019-04-29T16:10:01.022Z,54.1
2019-04-29T16:15:02.161Z,53
2019-04-29T16:20:01.418Z,53
2019-04-29T16:25:04.788Z,52.5
2019-04-29T16:30:01.289Z,51.9
2019-04-29T16:35:02.504Z,49.8
2019-04-29T16:40:01.482Z,50.8
2019-04-29T16:45:06.022Z,48.7
2019-04-29T16:50:04.566Z,49.8
2019-04-29T16:55:03.736Z,50.3
2019-04-29T17:00:06.304Z,48.7
2019-04-29T17:05:01.161Z,48.7
2019-04-29T17:10:02.489Z,46.5
2019-04-29T17:15:04.616Z,48.2
2019-04-29T17:20:02.501Z,47.1
2019-04-29T17:25:01.607Z,48.7
2019-04-29T17:30:03.332Z,47.6
2019-04-29T17:35:01.649Z,47.1
2019-04-29T17:40:00.604Z,46.5
2019-04-29T17:45:10.445Z,46.5
2019-04-29T17:50:01.905Z,46.5
2019-04-29T17:55:02.101Z,46.5
2019-04-29T18:00:04.932Z,46.5
2019-04-29T18:05:00.469Z,44.9
2019-04-29T18:10:01.395Z,45.5
2019-04-29T18:15:00.554Z,45.5
2019-04-29T18:20:01.465Z,45.5
2019-04-29T18:25:00.482Z,44.4
2019-04-29T18:30:01.442Z,44.9
2019-04-29T18:35:00.830Z,44.4
2019-04-29T18:40:02.188Z,45.5
2019-04-29T18:45:00.955Z,44.4
2019-04-29T18:50:02.259Z,43.3
2019-04-29T18:55:01.351Z,43.9
2019-04-29T19:00:04.663Z,43.3
2019-04-29T19:05:01.520Z,43.3
2019-04-29T19:10:00.984Z,43.9
2019-04-29T19:15:04.548Z,43.3
2019-04-29T19:20:00.825Z,43.3
2019-04-29T19:25:01.902Z,43.3
2019-04-29T19:30:01.254Z,43.3
2019-04-29T19:35:00.575Z,42.2
2019-04-29T19:40:01.775Z,41.2
2019-04-29T19:45:00.958Z,42.2
2019-04-29T19:50:02.288Z,42.2
2019-04-29T19:55:01.511Z,41.7
2019-04-29T20:00:02.957Z,42.2
2019-04-29T20:05:04.547Z,41.7
2019-04-29T20:10:05.007Z,41.7
2019-04-29T20:15:02.383Z,41.2
2019-04-29T20:20:01.031Z,41.2
2019-04-29T20:25:02.077Z,41.7
2019-04-29T20:30:01.139Z,41.2
2019-04-29T20:35:06.797Z,41.2
2019-04-29T20:40:01.863Z,40.6
2019-04-29T20:45:00.765Z,41.2
2019-04-29T20:50:01.809Z,41.2
2019-04-29T20:55:02.551Z,41.2
2019-04-29T21:00:02.035Z,40.6
2019-04-29T21:05:01.423Z,40.1
2019-04-29T21:10:04.724Z,40.6
2019-04-29T21:15:01.468Z,40.6
2019-04-29T21:20:00.687Z,40.6
2019-04-29T21:25:01.282Z,40.6
2019-04-29T21:30:00.511Z,40.6
2019-04-29T21:35:01.472Z,40.1
2019-04-29T21:40:00.752Z,40.6
2019-04-29T21:45:03.495Z,40.1
2019-04-29T21:50:00.966Z,40.1
2019-04-29T21:55:02.141Z,40.6
2019-04-29T22:00:01.055Z,41.2
2019-04-29T22:05:02.441Z,39
2019-04-29T22:10:01.537Z,40.1
2019-04-29T22:15:00.837Z,40.1
2019-04-29T22:20:03.886Z,40.1
2019-04-29T22:25:05.626Z,40.1
2019-04-29T22:30:02.322Z,40.1
2019-04-29T22:35:01.769Z,40.1
2019-04-29T22:40:03.035Z,40.1
2019-04-29T22:45:01.624Z,39
2019-04-29T22:50:03.082Z,39.5
2019-04-29T22:55:02.469Z,39
2019-04-29T23:00:01.149Z,40.1
2019-04-29T23:05:02.486Z,39.5
2019-04-29T23:10:01.406Z,40.1
2019-04-29T23:15:00.717Z,39
2019-04-29T23:20:01.985Z,39
2019-04-29T23:25:01.231Z,39.5
2019-04-29T23:30:02.615Z,37.9
2019-04-29T23:35:01.629Z,39
2019-04-29T23:40:02.500Z,37.9
2019-04-29T23:45:01.249Z,39
2019-04-29T23:50:02.535Z,36.9
2019-04-29T23:55:01.233Z,39
